sensor_id;sensor_type;location;lat;lon;timestamp;P1;durP1;ratioP1;P2;durP2;ratioP2
6185;SDS011;3126;52.738;8.316;2023-08-06T00:04:54;6.05;;;4.78;;
6185;SDS011;3126;52.738;8.316;2023-08-06T00:09:55;7.28;;;5.03;;
6185;SDS011;3126;52.738;8.316;2023-08-06T00:14:56;7.43;;;4.80;;
6185;SDS011;3126;52.738;8.316;2023-08-06T00:19:57;5.40;;;4.50;;
6185;SDS011;3126;52.738;8.316;2023-08-06T00:24:58;5.88;;;5.03;;
6185;SDS011;3126;52.738;8.316;2023-08-06T00:29:59;9.55;;;5.15;;
6185;SDS011;3126;52.738;8.316;2023-08-06T00:34:59;5.93;;;5.10;;
6185;SDS011;3126;52.738;8.316;2023-08-06T00:40:00;5.93;;;5.32;;
6185;SDS011;3126;52.738;8.316;2023-08-06T00:45:02;7.82;;;5.55;;
6185;SDS011;3126;52.738;8.316;2023-08-06T00:50:03;6.53;;;5.93;;
6185;SDS011;3126;52.738;8.316;2023-08-06T00:55:04;8.82;;;6.30;;
6185;SDS011;3126;52.738;8.316;2023-08-06T01:00:06;6.93;;;5.95;;
6185;SDS011;3126;52.738;8.316;2023-08-06T01:05:07;7.05;;;6.35;;
6185;SDS011;3126;52.738;8.316;2023-08-06T01:10:18;8.07;;;7.28;;
6185;SDS011;3126;52.738;8.316;2023-08-06T01:15:21;8.43;;;5.95;;
6185;SDS011;3126;52.738;8.316;2023-08-06T01:20:27;7.05;;;5.88;;
6185;SDS011;3126;52.738;8.316;2023-08-06T01:25:31;7.20;;;6.18;;
6185;SDS011;3126;52.738;8.316;2023-08-06T01:30:34;6.32;;;5.60;;
6185;SDS011;3126;52.738;8.316;2023-08-06T01:35:38;6.05;;;5.43;;
6185;SDS011;3126;52.738;8.316;2023-08-06T01:40:39;7.57;;;6.32;;
6185;SDS011;3126;52.738;8.316;2023-08-06T01:45:40;6.47;;;5.68;;
6185;SDS011;3126;52.738;8.316;2023-08-06T01:50:41;8.15;;;5.78;;
6185;SDS011;3126;52.738;8.316;2023-08-06T01:55:47;7.63;;;6.55;;
6185;SDS011;3126;52.738;8.316;2023-08-06T02:00:48;6.53;;;5.72;;
6185;SDS011;3126;52.738;8.316;2023-08-06T02:05:49;8.02;;;6.45;;
6185;SDS011;3126;52.738;8.316;2023-08-06T02:10:50;6.57;;;5.88;;
6185;SDS011;3126;52.738;8.316;2023-08-06T02:15:51;7.20;;;5.72;;
6185;SDS011;3126;52.738;8.316;2023-08-06T02:20:56;7.70;;;6.82;;
6185;SDS011;3126;52.738;8.316;2023-08-06T02:25:58;9.52;;;7.03;;
6185;SDS011;3126;52.738;8.316;2023-08-06T02:30:59;10.15;;;7.43;;
6185;SDS011;3126;52.738;8.316;2023-08-06T02:36:01;8.55;;;7.43;;
6185;SDS011;3126;52.738;8.316;2023-08-06T02:41:03;7.70;;;6.47;;
6185;SDS011;3126;52.738;8.316;2023-08-06T02:46:04;6.65;;;5.95;;
6185;SDS011;3126;52.738;8.316;2023-08-06T02:51:05;9.45;;;7.32;;
6185;SDS011;3126;52.738;8.316;2023-08-06T02:56:06;8.98;;;7.25;;
6185;SDS011;3126;52.738;8.316;2023-08-06T03:01:07;10.40;;;6.85;;
6185;SDS011;3126;52.738;8.316;2023-08-06T03:06:08;10.77;;;7.50;;
6185;SDS011;3126;52.738;8.316;2023-08-06T03:11:09;10.88;;;7.40;;
6185;SDS011;3126;52.738;8.316;2023-08-06T03:16:10;10.05;;;8.23;;
6185;SDS011;3126;52.738;8.316;2023-08-06T03:21:11;10.15;;;7.95;;
6185;SDS011;3126;52.738;8.316;2023-08-06T03:26:12;9.93;;;8.02;;
6185;SDS011;3126;52.738;8.316;2023-08-06T03:31:13;10.43;;;7.97;;
6185;SDS011;3126;52.738;8.316;2023-08-06T03:36:14;11.43;;;8.80;;
6185;SDS011;3126;52.738;8.316;2023-08-06T03:41:15;11.10;;;9.55;;
6185;SDS011;3126;52.738;8.316;2023-08-06T03:46:16;12.50;;;9.82;;
6185;SDS011;3126;52.738;8.316;2023-08-06T03:51:17;12.85;;;9.02;;
6185;SDS011;3126;52.738;8.316;2023-08-06T03:56:17;13.50;;;10.60;;
6185;SDS011;3126;52.738;8.316;2023-08-06T04:01:18;16.10;;;10.55;;
6185;SDS011;3126;52.738;8.316;2023-08-06T04:06:19;13.77;;;10.18;;
6185;SDS011;3126;52.738;8.316;2023-08-06T04:11:20;15.35;;;11.00;;
6185;SDS011;3126;52.738;8.316;2023-08-06T04:16:21;14.93;;;11.02;;
6185;SDS011;3126;52.738;8.316;2023-08-06T04:21:22;16.63;;;12.20;;
6185;SDS011;3126;52.738;8.316;2023-08-06T04:26:23;21.63;;;12.85;;
6185;SDS011;3126;52.738;8.316;2023-08-06T04:31:24;19.55;;;12.73;;
6185;SDS011;3126;52.738;8.316;2023-08-06T04:36:25;22.20;;;13.30;;
6185;SDS011;3126;52.738;8.316;2023-08-06T04:41:26;21.05;;;13.85;;
6185;SDS011;3126;52.738;8.316;2023-08-06T04:46:27;18.25;;;13.82;;
6185;SDS011;3126;52.738;8.316;2023-08-06T04:51:28;19.35;;;13.68;;
6185;SDS011;3126;52.738;8.316;2023-08-06T04:56:29;16.65;;;12.10;;
6185;SDS011;3126;52.738;8.316;2023-08-06T05:01:30;16.52;;;10.52;;
6185;SDS011;3126;52.738;8.316;2023-08-06T05:06:31;18.75;;;12.00;;
6185;SDS011;3126;52.738;8.316;2023-08-06T05:11:32;19.88;;;12.63;;
6185;SDS011;3126;52.738;8.316;2023-08-06T05:16:33;19.88;;;13.10;;
6185;SDS011;3126;52.738;8.316;2023-08-06T05:21:34;19.35;;;12.50;;
6185;SDS011;3126;52.738;8.316;2023-08-06T05:26:35;17.42;;;12.90;;
6185;SDS011;3126;52.738;8.316;2023-08-06T05:31:36;20.25;;;14.00;;
6185;SDS011;3126;52.738;8.316;2023-08-06T05:36:36;18.85;;;12.82;;
6185;SDS011;3126;52.738;8.316;2023-08-06T05:41:37;18.70;;;13.23;;
6185;SDS011;3126;52.738;8.316;2023-08-06T05:46:38;25.98;;;12.93;;
6185;SDS011;3126;52.738;8.316;2023-08-06T05:51:39;18.95;;;12.27;;
6185;SDS011;3126;52.738;8.316;2023-08-06T05:56:40;20.83;;;13.15;;
6185;SDS011;3126;52.738;8.316;2023-08-06T06:01:41;20.27;;;12.90;;
6185;SDS011;3126;52.738;8.316;2023-08-06T06:06:42;16.92;;;11.65;;
6185;SDS011;3126;52.738;8.316;2023-08-06T06:11:44;16.98;;;12.27;;
6185;SDS011;3126;52.738;8.316;2023-08-06T06:16:45;18.02;;;13.07;;
6185;SDS011;3126;52.738;8.316;2023-08-06T06:21:46;16.92;;;11.60;;
6185;SDS011;3126;52.738;8.316;2023-08-06T06:26:47;14.90;;;10.90;;
6185;SDS011;3126;52.738;8.316;2023-08-06T06:31:48;15.98;;;11.85;;
6185;SDS011;3126;52.738;8.316;2023-08-06T06:36:49;15.25;;;11.27;;
6185;SDS011;3126;52.738;8.316;2023-08-06T06:41:50;15.32;;;11.27;;
6185;SDS011;3126;52.738;8.316;2023-08-06T06:46:51;14.93;;;10.80;;
6185;SDS011;3126;52.738;8.316;2023-08-06T06:51:52;14.80;;;11.23;;
6185;SDS011;3126;52.738;8.316;2023-08-06T06:56:53;16.73;;;11.85;;
6185;SDS011;3126;52.738;8.316;2023-08-06T07:01:54;13.05;;;9.23;;
6185;SDS011;3126;52.738;8.316;2023-08-06T07:06:55;10.30;;;8.45;;
6185;SDS011;3126;52.738;8.316;2023-08-06T07:11:56;12.43;;;8.18;;
6185;SDS011;3126;52.738;8.316;2023-08-06T07:16:57;11.20;;;8.27;;
6185;SDS011;3126;52.738;8.316;2023-08-06T07:21:58;9.65;;;7.53;;
6185;SDS011;3126;52.738;8.316;2023-08-06T07:26:59;10.35;;;8.55;;
6185;SDS011;3126;52.738;8.316;2023-08-06T07:32:00;9.23;;;7.95;;
6185;SDS011;3126;52.738;8.316;2023-08-06T07:37:01;8.35;;;7.22;;
6185;SDS011;3126;52.738;8.316;2023-08-06T07:42:02;7.78;;;6.13;;
6185;SDS011;3126;52.738;8.316;2023-08-06T07:47:05;7.38;;;6.63;;
6185;SDS011;3126;52.738;8.316;2023-08-06T07:52:06;9.00;;;7.82;;
6185;SDS011;3126;52.738;8.316;2023-08-06T07:57:07;9.75;;;8.73;;
6185;SDS011;3126;52.738;8.316;2023-08-06T08:02:08;7.22;;;6.28;;
6185;SDS011;3126;52.738;8.316;2023-08-06T08:07:09;7.82;;;6.28;;
6185;SDS011;3126;52.738;8.316;2023-08-06T08:12:11;7.38;;;6.68;;
6185;SDS011;3126;52.738;8.316;2023-08-06T08:17:12;7.38;;;6.63;;
6185;SDS011;3126;52.738;8.316;2023-08-06T08:22:13;6.35;;;5.80;;
6185;SDS011;3126;52.738;8.316;2023-08-06T08:27:14;7.32;;;6.07;;
6185;SDS011;3126;52.738;8.316;2023-08-06T08:32:15;6.35;;;5.85;;
6185;SDS011;3126;52.738;8.316;2023-08-06T08:37:16;5.03;;;4.43;;
6185;SDS011;3126;52.738;8.316;2023-08-06T08:42:17;4.88;;;4.40;;
6185;SDS011;3126;52.738;8.316;2023-08-06T08:47:18;5.18;;;4.68;;
6185;SDS011;3126;52.738;8.316;2023-08-06T08:52:18;5.60;;;5.05;;
6185;SDS011;3126;52.738;8.316;2023-08-06T08:57:20;5.10;;;4.70;;
6185;SDS011;3126;52.738;8.316;2023-08-06T09:02:21;4.28;;;3.97;;
6185;SDS011;3126;52.738;8.316;2023-08-06T09:07:24;4.82;;;4.30;;
6185;SDS011;3126;52.738;8.316;2023-08-06T09:12:27;4.60;;;4.20;;
6185;SDS011;3126;52.738;8.316;2023-08-06T09:17:28;4.18;;;3.80;;
6185;SDS011;3126;52.738;8.316;2023-08-06T09:22:33;4.45;;;4.03;;
6185;SDS011;3126;52.738;8.316;2023-08-06T09:27:35;5.25;;;3.70;;
6185;SDS011;3126;52.738;8.316;2023-08-06T09:32:46;3.80;;;2.90;;
6185;SDS011;3126;52.738;8.316;2023-08-06T09:37:47;4.47;;;3.72;;
6185;SDS011;3126;52.738;8.316;2023-08-06T09:42:48;3.83;;;3.53;;
6185;SDS011;3126;52.738;8.316;2023-08-06T09:52:51;3.50;;;2.80;;
6185;SDS011;3126;52.738;8.316;2023-08-06T09:57:52;3.88;;;3.03;;
6185;SDS011;3126;52.738;8.316;2023-08-06T10:02:54;3.30;;;2.88;;
6185;SDS011;3126;52.738;8.316;2023-08-06T10:07:56;5.32;;;2.85;;
6185;SDS011;3126;52.738;8.316;2023-08-06T10:12:58;3.90;;;2.70;;
6185;SDS011;3126;52.738;8.316;2023-08-06T10:18:00;2.30;;;2.13;;
6185;SDS011;3126;52.738;8.316;2023-08-06T10:23:03;2.97;;;2.13;;
6185;SDS011;3126;52.738;8.316;2023-08-06T10:28:08;3.22;;;2.97;;
6185;SDS011;3126;52.738;8.316;2023-08-06T10:33:09;2.67;;;2.47;;
6185;SDS011;3126;52.738;8.316;2023-08-06T10:38:17;2.25;;;2.13;;
6185;SDS011;3126;52.738;8.316;2023-08-06T10:43:25;4.57;;;2.30;;
6185;SDS011;3126;52.738;8.316;2023-08-06T10:48:43;4.72;;;1.60;;
6185;SDS011;3126;52.738;8.316;2023-08-06T10:53:47;2.15;;;1.98;;
6185;SDS011;3126;52.738;8.316;2023-08-06T10:58:50;3.40;;;2.42;;
6185;SDS011;3126;52.738;8.316;2023-08-06T11:08:53;3.63;;;2.50;;
6185;SDS011;3126;52.738;8.316;2023-08-06T11:13:54;2.65;;;2.10;;
6185;SDS011;3126;52.738;8.316;2023-08-06T11:18:55;3.05;;;2.85;;
6185;SDS011;3126;52.738;8.316;2023-08-06T11:23:57;3.95;;;2.78;;
6185;SDS011;3126;52.738;8.316;2023-08-06T11:28:58;2.63;;;2.33;;
6185;SDS011;3126;52.738;8.316;2023-08-06T11:33:59;3.13;;;2.92;;
6185;SDS011;3126;52.738;8.316;2023-08-06T11:39:00;3.47;;;2.67;;
6185;SDS011;3126;52.738;8.316;2023-08-06T11:44:02;3.50;;;3.30;;
6185;SDS011;3126;52.738;8.316;2023-08-06T11:49:03;4.13;;;2.75;;
6185;SDS011;3126;52.738;8.316;2023-08-06T11:54:04;3.00;;;2.70;;
6185;SDS011;3126;52.738;8.316;2023-08-06T11:59:07;3.40;;;3.10;;
6185;SDS011;3126;52.738;8.316;2023-08-06T12:04:09;3.03;;;2.83;;
6185;SDS011;3126;52.738;8.316;2023-08-06T12:09:10;3.97;;;3.00;;
6185;SDS011;3126;52.738;8.316;2023-08-06T12:14:11;3.33;;;3.08;;
6185;SDS011;3126;52.738;8.316;2023-08-06T12:19:12;4.50;;;3.53;;
6185;SDS011;3126;52.738;8.316;2023-08-06T12:24:12;3.90;;;3.60;;
6185;SDS011;3126;52.738;8.316;2023-08-06T12:29:13;6.78;;;4.72;;
6185;SDS011;3126;52.738;8.316;2023-08-06T12:34:14;4.90;;;4.50;;
6185;SDS011;3126;52.738;8.316;2023-08-06T12:39:15;8.05;;;5.88;;
6185;SDS011;3126;52.738;8.316;2023-08-06T12:44:16;6.82;;;6.20;;
6185;SDS011;3126;52.738;8.316;2023-08-06T12:49:18;5.57;;;5.13;;
6185;SDS011;3126;52.738;8.316;2023-08-06T12:54:21;6.15;;;5.57;;
6185;SDS011;3126;52.738;8.316;2023-08-06T12:59:22;5.88;;;5.30;;
6185;SDS011;3126;52.738;8.316;2023-08-06T13:04:23;5.35;;;4.90;;
6185;SDS011;3126;52.738;8.316;2023-08-06T13:09:24;4.63;;;4.22;;
6185;SDS011;3126;52.738;8.316;2023-08-06T13:14:26;3.97;;;3.70;;
6185;SDS011;3126;52.738;8.316;2023-08-06T13:19:29;4.18;;;3.03;;
6185;SDS011;3126;52.738;8.316;2023-08-06T13:24:30;2.90;;;2.70;;
6185;SDS011;3126;52.738;8.316;2023-08-06T13:29:31;2.88;;;2.58;;
6185;SDS011;3126;52.738;8.316;2023-08-06T13:34:32;1.90;;;1.80;;
6185;SDS011;3126;52.738;8.316;2023-08-06T13:39:33;2.17;;;1.98;;
6185;SDS011;3126;52.738;8.316;2023-08-06T13:44:34;1.92;;;1.83;;
6185;SDS011;3126;52.738;8.316;2023-08-06T13:49:35;2.20;;;2.00;;
6185;SDS011;3126;52.738;8.316;2023-08-06T13:54:36;2.10;;;1.90;;
6185;SDS011;3126;52.738;8.316;2023-08-06T13:59:37;3.08;;;2.10;;
6185;SDS011;3126;52.738;8.316;2023-08-06T14:04:38;2.25;;;2.10;;
6185;SDS011;3126;52.738;8.316;2023-08-06T14:09:40;2.42;;;2.22;;
6185;SDS011;3126;52.738;8.316;2023-08-06T14:14:42;2.70;;;2.33;;
6185;SDS011;3126;52.738;8.316;2023-08-06T14:19:43;2.10;;;2.00;;
6185;SDS011;3126;52.738;8.316;2023-08-06T14:24:44;2.33;;;2.22;;
6185;SDS011;3126;52.738;8.316;2023-08-06T14:29:47;2.22;;;1.90;;
6185;SDS011;3126;52.738;8.316;2023-08-06T14:34:48;1.95;;;1.85;;
6185;SDS011;3126;52.738;8.316;2023-08-06T14:39:48;1.88;;;1.77;;
6185;SDS011;3126;52.738;8.316;2023-08-06T14:44:49;2.35;;;2.15;;
6185;SDS011;3126;52.738;8.316;2023-08-06T14:49:51;2.15;;;1.95;;
6185;SDS011;3126;52.738;8.316;2023-08-06T14:54:51;2.42;;;2.22;;
6185;SDS011;3126;52.738;8.316;2023-08-06T14:59:55;3.25;;;2.22;;
6185;SDS011;3126;52.738;8.316;2023-08-06T15:04:56;4.07;;;2.58;;
6185;SDS011;3126;52.738;8.316;2023-08-06T15:09:57;2.78;;;2.58;;
6185;SDS011;3126;52.738;8.316;2023-08-06T15:14:58;2.42;;;2.22;;
6185;SDS011;3126;52.738;8.316;2023-08-06T15:20:01;3.22;;;2.33;;
6185;SDS011;3126;52.738;8.316;2023-08-06T15:25:02;2.33;;;2.13;;
6185;SDS011;3126;52.738;8.316;2023-08-06T15:30:04;1.77;;;1.67;;
6185;SDS011;3126;52.738;8.316;2023-08-06T15:35:05;2.75;;;2.40;;
6185;SDS011;3126;52.738;8.316;2023-08-06T15:40:06;2.65;;;2.40;;
6185;SDS011;3126;52.738;8.316;2023-08-06T15:45:08;5.18;;;2.50;;
6185;SDS011;3126;52.738;8.316;2023-08-06T15:50:09;2.70;;;2.50;;
6185;SDS011;3126;52.738;8.316;2023-08-06T15:55:10;4.03;;;2.70;;
6185;SDS011;3126;52.738;8.316;2023-08-06T16:00:11;2.90;;;2.70;;
6185;SDS011;3126;52.738;8.316;2023-08-06T16:05:12;2.95;;;2.65;;
6185;SDS011;3126;52.738;8.316;2023-08-06T16:10:13;3.10;;;2.78;;
6185;SDS011;3126;52.738;8.316;2023-08-06T16:15:14;3.72;;;3.25;;
6185;SDS011;3126;52.738;8.316;2023-08-06T16:20:19;3.58;;;3.03;;
6185;SDS011;3126;52.738;8.316;2023-08-06T16:25:20;4.32;;;3.50;;
6185;SDS011;3126;52.738;8.316;2023-08-06T16:30:21;3.17;;;2.97;;
6185;SDS011;3126;52.738;8.316;2023-08-06T16:35:22;3.45;;;3.15;;
6185;SDS011;3126;52.738;8.316;2023-08-06T16:40:23;4.70;;;3.30;;
6185;SDS011;3126;52.738;8.316;2023-08-06T16:45:24;3.35;;;3.05;;
6185;SDS011;3126;52.738;8.316;2023-08-06T16:50:25;4.20;;;3.05;;
6185;SDS011;3126;52.738;8.316;2023-08-06T16:55:26;3.38;;;3.08;;
6185;SDS011;3126;52.738;8.316;2023-08-06T17:00:26;3.15;;;2.80;;
6185;SDS011;3126;52.738;8.316;2023-08-06T17:05:27;3.38;;;2.75;;
6185;SDS011;3126;52.738;8.316;2023-08-06T17:10:32;3.13;;;2.65;;
6185;SDS011;3126;52.738;8.316;2023-08-06T17:15:33;3.00;;;2.70;;
6185;SDS011;3126;52.738;8.316;2023-08-06T17:20:34;4.38;;;3.15;;
6185;SDS011;3126;52.738;8.316;2023-08-06T17:25:35;4.32;;;3.08;;
6185;SDS011;3126;52.738;8.316;2023-08-06T17:30:38;2.53;;;2.30;;
6185;SDS011;3126;52.738;8.316;2023-08-06T17:35:40;2.55;;;2.35;;
6185;SDS011;3126;52.738;8.316;2023-08-06T17:40:42;3.03;;;2.22;;
6185;SDS011;3126;52.738;8.316;2023-08-06T17:45:43;3.17;;;2.58;;
6185;SDS011;3126;52.738;8.316;2023-08-06T17:55:46;2.85;;;2.47;;
6185;SDS011;3126;52.738;8.316;2023-08-06T18:00:48;2.90;;;2.60;;
6185;SDS011;3126;52.738;8.316;2023-08-06T18:05:53;3.28;;;2.55;;
6185;SDS011;3126;52.738;8.316;2023-08-06T18:10:54;3.75;;;2.88;;
6185;SDS011;3126;52.738;8.316;2023-08-06T18:15:55;3.33;;;2.47;;
6185;SDS011;3126;52.738;8.316;2023-08-06T18:20:56;3.05;;;2.72;;
6185;SDS011;3126;52.738;8.316;2023-08-06T18:25:57;4.07;;;3.20;;
6185;SDS011;3126;52.738;8.316;2023-08-06T18:30:59;3.95;;;3.10;;
6185;SDS011;3126;52.738;8.316;2023-08-06T18:36:00;3.25;;;2.92;;
6185;SDS011;3126;52.738;8.316;2023-08-06T18:41:01;4.82;;;3.28;;
6185;SDS011;3126;52.738;8.316;2023-08-06T18:46:02;4.07;;;3.00;;
6185;SDS011;3126;52.738;8.316;2023-08-06T18:51:03;3.20;;;2.90;;
6185;SDS011;3126;52.738;8.316;2023-08-06T18:56:04;4.88;;;3.70;;
6185;SDS011;3126;52.738;8.316;2023-08-06T19:01:05;4.00;;;3.67;;
6185;SDS011;3126;52.738;8.316;2023-08-06T19:06:06;4.13;;;3.80;;
6185;SDS011;3126;52.738;8.316;2023-08-06T19:11:07;5.78;;;3.85;;
6185;SDS011;3126;52.738;8.316;2023-08-06T19:16:08;7.88;;;3.42;;
6185;SDS011;3126;52.738;8.316;2023-08-06T19:21:09;5.13;;;4.00;;
6185;SDS011;3126;52.738;8.316;2023-08-06T19:26:10;4.25;;;3.58;;
6185;SDS011;3126;52.738;8.316;2023-08-06T19:31:10;5.90;;;3.58;;
6185;SDS011;3126;52.738;8.316;2023-08-06T19:36:11;5.05;;;3.40;;
6185;SDS011;3126;52.738;8.316;2023-08-06T19:41:13;4.28;;;3.88;;
6185;SDS011;3126;52.738;8.316;2023-08-06T19:46:14;5.00;;;3.17;;
6185;SDS011;3126;52.738;8.316;2023-08-06T19:51:15;4.20;;;3.28;;
6185;SDS011;3126;52.738;8.316;2023-08-06T19:56:17;5.20;;;3.45;;
6185;SDS011;3126;52.738;8.316;2023-08-06T20:01:18;3.60;;;3.25;;
6185;SDS011;3126;52.738;8.316;2023-08-06T20:06:19;3.72;;;3.45;;
6185;SDS011;3126;52.738;8.316;2023-08-06T20:11:26;4.88;;;3.30;;
6185;SDS011;3126;52.738;8.316;2023-08-06T20:16:27;4.70;;;3.35;;
6185;SDS011;3126;52.738;8.316;2023-08-06T20:21:28;4.30;;;3.28;;
6185;SDS011;3126;52.738;8.316;2023-08-06T20:26:29;6.50;;;3.97;;
6185;SDS011;3126;52.738;8.316;2023-08-06T20:31:30;3.60;;;3.30;;
6185;SDS011;3126;52.738;8.316;2023-08-06T20:36:31;5.05;;;3.60;;
6185;SDS011;3126;52.738;8.316;2023-08-06T20:41:32;3.78;;;3.35;;
6185;SDS011;3126;52.738;8.316;2023-08-06T20:46:33;4.80;;;3.47;;
6185;SDS011;3126;52.738;8.316;2023-08-06T20:51:34;5.07;;;3.92;;
6185;SDS011;3126;52.738;8.316;2023-08-06T20:56:35;4.25;;;3.85;;
6185;SDS011;3126;52.738;8.316;2023-08-06T21:01:35;5.05;;;4.55;;
6185;SDS011;3126;52.738;8.316;2023-08-06T21:06:36;4.90;;;4.40;;
6185;SDS011;3126;52.738;8.316;2023-08-06T21:11:37;5.05;;;3.72;;
6185;SDS011;3126;52.738;8.316;2023-08-06T21:16:38;8.35;;;4.22;;
6185;SDS011;3126;52.738;8.316;2023-08-06T21:21:40;4.07;;;3.78;;
6185;SDS011;3126;52.738;8.316;2023-08-06T21:26:41;4.50;;;3.63;;
6185;SDS011;3126;52.738;8.316;2023-08-06T21:31:42;6.95;;;4.63;;
6185;SDS011;3126;52.738;8.316;2023-08-06T21:36:43;4.63;;;4.22;;
6185;SDS011;3126;52.738;8.316;2023-08-06T21:41:44;4.65;;;3.92;;
6185;SDS011;3126;52.738;8.316;2023-08-06T21:46:45;8.07;;;4.28;;
6185;SDS011;3126;52.738;8.316;2023-08-06T21:51:46;5.68;;;4.55;;
6185;SDS011;3126;52.738;8.316;2023-08-06T21:56:47;5.80;;;4.90;;
6185;SDS011;3126;52.738;8.316;2023-08-06T22:01:48;3.97;;;3.58;;
6185;SDS011;3126;52.738;8.316;2023-08-06T22:06:49;5.95;;;4.28;;
6185;SDS011;3126;52.738;8.316;2023-08-06T22:11:50;6.05;;;3.65;;
6185;SDS011;3126;52.738;8.316;2023-08-06T22:16:51;5.75;;;4.57;;
6185;SDS011;3126;52.738;8.316;2023-08-06T22:21:52;6.97;;;4.53;;
6185;SDS011;3126;52.738;8.316;2023-08-06T22:26:53;5.35;;;4.57;;
6185;SDS011;3126;52.738;8.316;2023-08-06T22:31:54;5.75;;;4.28;;
6185;SDS011;3126;52.738;8.316;2023-08-06T22:36:55;7.60;;;4.20;;
6185;SDS011;3126;52.738;8.316;2023-08-06T22:41:56;6.22;;;4.90;;
6185;SDS011;3126;52.738;8.316;2023-08-06T22:46:57;6.28;;;4.53;;
6185;SDS011;3126;52.738;8.316;2023-08-06T22:51:57;6.00;;;4.57;;
6185;SDS011;3126;52.738;8.316;2023-08-06T22:56:58;5.95;;;5.10;;
6185;SDS011;3126;52.738;8.316;2023-08-06T23:02:00;7.45;;;5.18;;
6185;SDS011;3126;52.738;8.316;2023-08-06T23:07:01;5.53;;;4.28;;
6185;SDS011;3126;52.738;8.316;2023-08-06T23:12:02;7.22;;;5.20;;
6185;SDS011;3126;52.738;8.316;2023-08-06T23:17:03;7.22;;;5.10;;
6185;SDS011;3126;52.738;8.316;2023-08-06T23:22:04;7.03;;;5.57;;
6185;SDS011;3126;52.738;8.316;2023-08-06T23:27:05;6.97;;;5.28;;
6185;SDS011;3126;52.738;8.316;2023-08-06T23:32:06;8.30;;;5.00;;
6185;SDS011;3126;52.738;8.316;2023-08-06T23:37:07;8.32;;;4.82;;
6185;SDS011;3126;52.738;8.316;2023-08-06T23:42:08;5.95;;;5.03;;
6185;SDS011;3126;52.738;8.316;2023-08-06T23:47:09;6.68;;;5.82;;
6185;SDS011;3126;52.738;8.316;2023-08-06T23:52:10;7.55;;;5.13;;
6185;SDS011;3126;52.738;8.316;2023-08-06T23:57:11;7.82;;;5.80;;
